createdAt,value
2018-05-27T07:58:20.321Z,25.30
2018-05-27T08:03:22.836Z,25.20
2018-05-27T08:08:25.352Z,25.30
2018-05-27T08:13:27.877Z,25.50
2018-05-27T08:18:30.382Z,25.70
2018-05-27T08:23:32.895Z,25.90
2018-05-27T08:28:35.414Z,26.10
2018-05-27T08:33:37.951Z,26.30
2018-05-27T08:38:40.474Z,26.50
2018-05-27T08:43:42.996Z,26.80
2018-05-27T08:48:45.517Z,27.00
2018-05-27T08:53:48.821Z,27.40
2018-05-27T08:58:51.366Z,27.40
2018-05-27T09:03:54.011Z,27.60
2018-05-27T09:08:57.448Z,28.10
2018-05-27T09:14:00.734Z,28.30
2018-05-27T09:19:03.310Z,28.20
2018-05-27T09:24:05.858Z,28.50
2018-05-27T09:29:08.447Z,28.70
2018-05-27T09:34:12.655Z,29.10
2018-05-27T09:39:15.188Z,29.10
2018-05-27T09:44:17.741Z,29.40
2018-05-27T09:49:20.324Z,29.50
2018-05-27T09:54:22.919Z,29.80
2018-05-27T09:59:25.509Z,30.00
2018-05-27T10:04:28.054Z,30.20
2018-05-27T10:09:30.653Z,30.30
2018-05-27T10:14:33.237Z,30.50
2018-05-27T10:19:35.831Z,30.60
2018-05-27T10:24:38.415Z,30.60
2018-05-27T10:29:41.762Z,30.80
2018-05-27T10:34:44.339Z,30.70
2018-05-27T10:39:46.940Z,30.80
2018-05-27T10:44:49.553Z,30.90
2018-05-27T10:49:52.141Z,31.00
2018-05-27T10:54:54.734Z,31.20
2018-05-27T10:59:57.334Z,31.40
2018-05-27T11:04:59.934Z,31.50
2018-05-27T11:10:02.511Z,31.50
2018-05-27T11:15:05.101Z,31.40
2018-05-27T11:20:07.710Z,31.30
2018-05-27T11:25:10.287Z,31.20
2018-05-27T11:30:12.866Z,31.00
2018-05-27T11:35:16.233Z,30.90
2018-05-27T11:40:18.919Z,30.80
2018-05-27T11:45:22.284Z,30.90
2018-05-27T11:50:24.865Z,30.80
2018-05-27T11:55:27.546Z,30.80
2018-05-27T12:00:30.217Z,30.80
2018-05-27T12:05:32.818Z,30.90
2018-05-27T12:10:35.513Z,31.00
2018-05-27T12:15:38.259Z,31.20
2018-05-27T12:20:40.954Z,31.50
2018-05-27T12:25:43.588Z,31.80
2018-05-27T12:30:46.753Z,32.10
2018-05-27T12:35:49.334Z,32.30
2018-05-27T12:40:51.928Z,32.30
2018-05-27T12:45:54.518Z,32.30
2018-05-27T12:51:01.491Z,32.20
2018-05-27T12:56:04.793Z,32.30
2018-05-27T13:01:07.375Z,32.20
2018-05-27T13:06:10.787Z,32.60
2018-05-27T13:11:16.831Z,32.70
2018-05-27T13:16:21.222Z,32.80
2018-05-27T13:21:23.789Z,32.70
2018-05-27T13:26:28.114Z,33.00
2018-05-27T13:31:31.656Z,32.90
2018-05-27T13:36:34.300Z,33.00
2018-05-27T13:41:37.832Z,33.10
2018-05-27T13:46:41.463Z,33.20
2018-05-27T13:51:44.061Z,33.20
2018-05-27T13:56:46.686Z,33.20
2018-05-27T14:01:50.178Z,33.20
2018-05-27T14:06:52.756Z,33.30
2018-05-27T14:11:55.347Z,33.30
2018-05-27T14:16:58.080Z,33.40
2018-05-27T14:22:01.498Z,33.80
2018-05-27T14:27:05.707Z,33.70
2018-05-27T14:32:09.898Z,34.00
2018-05-27T14:37:16.454Z,34.20
2018-05-27T14:42:22.075Z,34.60
2018-05-27T14:47:24.694Z,34.50
2018-05-27T14:52:28.742Z,34.60
2018-05-27T14:57:32.233Z,34.50
2018-05-27T15:02:36.783Z,34.30
2018-05-27T15:07:39.473Z,34.30
2018-05-27T15:12:42.922Z,33.90
2018-05-27T15:17:45.628Z,33.90
2018-05-27T15:22:48.309Z,33.80
2018-05-27T15:27:52.109Z,33.60
2018-05-27T15:32:55.948Z,33.50
2018-05-27T15:37:58.595Z,33.30
2018-05-27T15:43:01.189Z,33.20
2018-05-27T15:48:03.790Z,33.10
2018-05-27T15:53:06.444Z,33.00
2018-05-27T15:58:09.108Z,32.90
2018-05-27T16:03:11.673Z,32.70
2018-05-27T16:08:14.285Z,32.70
2018-05-27T16:13:16.877Z,32.60
2018-05-27T16:18:19.440Z,32.50
2018-05-27T16:23:22.099Z,32.50
2018-05-27T16:28:24.756Z,32.50
2018-05-27T16:33:27.868Z,32.40
2018-05-27T16:38:30.576Z,32.30
2018-05-27T16:43:33.151Z,32.20
2018-05-27T16:48:35.753Z,32.10
2018-05-27T16:53:39.242Z,32.00
2018-05-27T16:58:41.935Z,31.90
2018-05-27T17:03:45.484Z,31.80
2018-05-27T17:08:48.057Z,31.70
2018-05-27T17:13:50.685Z,31.60
2018-05-27T17:18:53.271Z,31.50
2018-05-27T17:23:55.871Z,31.40
2018-05-27T17:28:58.545Z,31.20
2018-05-27T17:34:01.980Z,31.00
2018-05-27T17:39:10.185Z,30.80
2018-05-27T17:44:23.365Z,30.50
2018-05-27T17:49:41.482Z,30.20
2018-05-27T17:54:52.549Z,29.80
2018-05-27T17:59:58.926Z,29.50
2018-05-27T18:05:06.281Z,29.10
2018-05-27T18:10:09.026Z,28.80
2018-05-27T18:15:13.500Z,28.50
2018-05-27T18:20:16.228Z,28.20
2018-05-27T18:25:19.891Z,27.90
2018-05-27T18:30:23.413Z,27.40
2018-05-27T18:35:25.989Z,27.30
2018-05-27T18:40:28.606Z,27.20
2018-05-27T18:45:31.990Z,26.80
2018-05-27T18:50:34.640Z,26.70
2018-05-27T18:55:38.151Z,26.80
2018-05-27T19:00:41.507Z,26.50
2018-05-27T19:05:44.082Z,26.40
2018-05-27T19:10:46.679Z,26.20
2018-05-27T19:15:49.296Z,26.10
2018-05-27T19:20:51.889Z,26.00
2018-05-27T19:25:54.477Z,25.90
2018-05-27T19:30:57.815Z,25.80
2018-05-27T19:36:00.427Z,25.70
2018-05-27T19:41:03.041Z,25.70
2018-05-27T19:46:06.502Z,25.60
2018-05-27T19:51:09.039Z,25.60
2018-05-27T19:56:11.590Z,25.50
2018-05-27T20:01:14.171Z,25.40
2018-05-27T20:06:16.736Z,25.40
2018-05-27T20:11:20.047Z,25.20
2018-05-27T20:16:23.358Z,25.10
2018-05-27T20:21:26.921Z,25.10
2018-05-27T20:26:29.486Z,25.00
2018-05-27T20:31:32.062Z,25.00
2018-05-27T20:36:35.412Z,24.80
2018-05-27T20:41:37.949Z,24.80
2018-05-27T20:46:40.524Z,24.70
2018-05-27T20:51:43.106Z,24.70
2018-05-27T20:56:46.487Z,24.40
2018-05-27T21:01:49.827Z,24.30
2018-05-27T21:06:52.404Z,24.20
2018-05-27T21:11:54.951Z,24.20
2018-05-27T21:16:57.501Z,24.10
2018-05-27T21:22:00.039Z,24.00
2018-05-27T21:27:02.572Z,24.00
2018-05-27T21:32:05.869Z,23.80
2018-05-27T21:37:08.475Z,23.70
2018-05-27T21:42:11.058Z,23.70
2018-05-27T21:47:13.644Z,23.60
2018-05-27T21:52:16.937Z,23.00
2018-05-27T21:57:19.471Z,22.90
2018-05-27T22:02:26.179Z,22.40
2018-05-27T22:07:28.687Z,22.30
2018-05-27T22:12:31.201Z,22.10
2018-05-27T22:17:33.704Z,21.80
2018-05-27T22:22:36.224Z,21.80
2018-05-27T22:27:38.736Z,21.70
2018-05-27T22:32:42.020Z,21.60
2018-05-27T22:37:44.544Z,21.50
2018-05-27T22:42:47.832Z,21.70
2018-05-27T22:47:50.334Z,21.60
2018-05-27T22:52:52.850Z,21.70
2018-05-27T22:57:55.364Z,21.60
2018-05-27T23:02:57.864Z,21.70
2018-05-27T23:08:00.369Z,21.60
2018-05-27T23:13:02.886Z,21.60
2018-05-27T23:18:05.396Z,21.60
2018-05-27T23:23:07.897Z,21.60
2018-05-27T23:28:11.157Z,21.60
2018-05-27T23:33:13.661Z,21.50
2018-05-27T23:38:16.164Z,21.60
2018-05-27T23:43:18.683Z,21.70
2018-05-27T23:48:21.953Z,21.60
2018-05-27T23:53:24.459Z,21.50
2018-05-27T23:58:26.961Z,21.60
